createdAt,value
2022-10-26T00:01:05.007Z,18.77
2022-10-26T00:03:31.820Z,18.79
2022-10-26T00:06:19.483Z,18.87
2022-10-26T00:08:46.791Z,18.90
2022-10-26T00:11:14.469Z,19.10
2022-10-26T00:13:41.564Z,19.25
2022-10-26T00:16:13.908Z,19.25
2022-10-26T00:18:41.147Z,18.76
2022-10-26T00:21:09.840Z,18.77
2022-10-26T00:23:36.627Z,18.53
2022-10-26T00:26:04.200Z,18.35
2022-10-26T00:28:31.025Z,18.53
2022-10-26T00:31:06.242Z,18.44
2022-10-26T00:33:33.603Z,18.42
2022-10-26T00:36:00.727Z,18.56
2022-10-26T00:38:27.609Z,18.48
2022-10-26T00:40:54.295Z,18.51
2022-10-26T00:43:27.013Z,18.57
2022-10-26T00:45:56.627Z,18.63
2022-10-26T00:48:31.838Z,18.38
2022-10-26T00:51:03.137Z,18.36
2022-10-26T00:53:31.495Z,18.25
2022-10-26T00:55:58.531Z,18.45
2022-10-26T00:58:26.395Z,18.24
2022-10-26T01:00:53.527Z,18.29
2022-10-26T01:03:21.502Z,18.38
2022-10-26T01:05:49.714Z,18.17
2022-10-26T01:08:18.052Z,18.23
2022-10-26T01:10:45.529Z,18.29
2022-10-26T01:13:13.445Z,18.33
2022-10-26T01:16:05.015Z,18.36
2022-10-26T01:19:25.470Z,18.12
2022-10-26T01:22:06.736Z,17.93
2022-10-26T01:24:39.184Z,17.91
2022-10-26T01:27:23.850Z,17.93
2022-10-26T01:30:10.422Z,17.65
2022-10-26T01:32:57.560Z,17.89
2022-10-26T01:35:26.814Z,18.01
2022-10-26T01:38:22.574Z,18.17
2022-10-26T01:41:00.346Z,18.04
2022-10-26T01:43:33.864Z,18.20
2022-10-26T01:46:02.337Z,18.19
2022-10-26T01:48:30.063Z,17.97
2022-10-26T01:50:58.330Z,18.33
2022-10-26T01:53:27.635Z,18.14
2022-10-26T01:55:55.879Z,18.09
2022-10-26T01:58:49.876Z,18.26
2022-10-26T02:01:53.324Z,18.22
2022-10-26T02:04:46.230Z,17.81
2022-10-26T02:07:31.649Z,17.72
2022-10-26T02:10:32.018Z,18.00
2022-10-26T02:13:01.452Z,18.10
2022-10-26T02:15:36.649Z,18.02
2022-10-26T02:18:31.934Z,17.42
2022-10-26T02:21:07.269Z,17.55
2022-10-26T02:23:37.460Z,17.93
2022-10-26T02:26:08.448Z,17.82
2022-10-26T02:28:39.114Z,17.65
2022-10-26T02:31:07.779Z,17.93
2022-10-26T02:33:39.965Z,17.93
2022-10-26T02:36:11.559Z,17.97
2022-10-26T02:38:41.773Z,18.09
2022-10-26T02:41:09.021Z,18.13
2022-10-26T02:43:41.931Z,17.94
2022-10-26T02:46:17.045Z,17.84
2022-10-26T02:48:44.013Z,17.90
2022-10-26T02:51:20.554Z,17.56
2022-10-26T02:53:59.168Z,17.38
2022-10-26T02:56:35.518Z,17.46
2022-10-26T02:59:05.829Z,17.46
2022-10-26T03:01:34.401Z,17.60
2022-10-26T03:04:01.851Z,17.47
2022-10-26T03:06:28.530Z,17.51
2022-10-26T03:08:55.159Z,17.76
2022-10-26T03:11:21.791Z,17.71
2022-10-26T03:13:48.392Z,17.71
2022-10-26T03:16:15.027Z,17.72
2022-10-26T03:18:41.680Z,17.27
2022-10-26T03:21:08.322Z,17.36
2022-10-26T03:23:34.903Z,17.38
2022-10-26T03:26:02.239Z,17.20
2022-10-26T03:28:28.823Z,17.37
2022-10-26T03:30:55.453Z,17.45
2022-10-26T03:33:25.629Z,17.52
2022-10-26T03:35:56.938Z,17.03
2022-10-26T03:38:24.314Z,17.12
2022-10-26T03:41:16.847Z,17.19
2022-10-26T03:43:43.416Z,16.92
2022-10-26T03:46:09.998Z,16.67
2022-10-26T03:48:36.685Z,16.60
2022-10-26T03:51:03.329Z,16.96
2022-10-26T03:53:40.794Z,16.66
2022-10-26T03:56:07.681Z,16.20
2022-10-26T03:58:34.255Z,15.90
2022-10-26T04:01:00.923Z,15.75
2022-10-26T04:03:30.369Z,16.17
2022-10-26T04:05:59.918Z,16.32
2022-10-26T04:08:26.525Z,16.00
2022-10-26T04:10:53.125Z,16.00
2022-10-26T04:13:19.759Z,16.11
2022-10-26T04:15:46.408Z,16.66
2022-10-26T04:18:13.082Z,16.79
2022-10-26T04:20:42.238Z,16.79
2022-10-26T04:23:14.462Z,16.51
2022-10-26T04:25:42.866Z,16.51
2022-10-26T04:28:11.467Z,16.32
2022-10-26T04:30:39.044Z,16.18
2022-10-26T04:33:13.580Z,16.08
2022-10-26T04:35:40.429Z,15.62
2022-10-26T04:38:07.679Z,15.90
2022-10-26T04:40:37.670Z,16.12
2022-10-26T04:43:04.346Z,16.65
2022-10-26T04:45:31.262Z,16.73
2022-10-26T04:48:07.031Z,16.86
2022-10-26T04:50:34.658Z,16.83
2022-10-26T04:53:01.902Z,17.03
2022-10-26T04:55:28.490Z,17.01
2022-10-26T04:57:57.302Z,16.88
2022-10-26T05:00:27.647Z,16.86
2022-10-26T05:02:59.865Z,16.90
2022-10-26T05:05:26.484Z,16.83
2022-10-26T05:07:57.311Z,16.77
2022-10-26T05:10:24.735Z,16.82
2022-10-26T05:12:55.547Z,16.76
2022-10-26T05:15:22.843Z,16.85
2022-10-26T05:17:59.083Z,16.58
2022-10-26T05:20:30.821Z,16.57
2022-10-26T05:22:59.045Z,16.69
2022-10-26T05:25:26.360Z,16.66
2022-10-26T05:27:56.987Z,16.80
2022-10-26T05:30:23.617Z,16.71
2022-10-26T05:32:57.337Z,16.43
2022-10-26T05:35:24.356Z,16.37
2022-10-26T05:37:50.924Z,16.40
2022-10-26T05:40:17.722Z,16.48
2022-10-26T05:42:47.726Z,16.46
2022-10-26T05:45:20.332Z,16.39
2022-10-26T05:47:50.333Z,16.59
2022-10-26T05:50:24.536Z,16.65
2022-10-26T05:52:51.172Z,16.76
2022-10-26T05:55:18.625Z,16.90
2022-10-26T05:57:48.543Z,16.99
2022-10-26T06:00:19.866Z,16.94
2022-10-26T06:03:33.811Z,16.84
2022-10-26T06:06:02.697Z,17.03
2022-10-26T06:08:32.343Z,16.96
2022-10-26T06:11:05.427Z,17.09
2022-10-26T06:13:37.351Z,17.24
2022-10-26T06:16:18.949Z,17.12
2022-10-26T06:18:57.079Z,17.21
2022-10-26T06:21:39.601Z,17.07
2022-10-26T06:24:08.610Z,17.26
2022-10-26T06:27:06.901Z,17.30
2022-10-26T06:29:39.389Z,17.34
2022-10-26T06:32:09.216Z,17.26
2022-10-26T06:34:39.563Z,17.35
2022-10-26T06:37:07.872Z,17.45
2022-10-26T06:39:42.264Z,17.47
2022-10-26T06:42:11.819Z,17.70
2022-10-26T06:44:41.108Z,17.75
2022-10-26T06:47:21.255Z,17.42
2022-10-26T06:50:09.539Z,17.68
2022-10-26T06:52:46.619Z,17.59
2022-10-26T06:55:16.609Z,17.88
2022-10-26T06:57:44.463Z,18.06
2022-10-26T07:00:14.595Z,18.15
2022-10-26T07:02:41.291Z,18.16
2022-10-26T07:05:12.840Z,17.70
2022-10-26T07:07:45.006Z,17.81
2022-10-26T07:10:13.266Z,18.09
2022-10-26T07:12:39.885Z,18.14
2022-10-26T07:17:52.302Z,17.38
2022-10-26T07:20:21.021Z,17.68
2022-10-26T07:22:57.298Z,17.68
2022-10-26T07:25:25.360Z,18.19
2022-10-26T07:27:52.332Z,18.19
2022-10-26T07:30:19.045Z,18.53
2022-10-26T07:32:45.650Z,17.99
2022-10-26T07:35:12.525Z,18.03
2022-10-26T07:37:39.157Z,18.27
2022-10-26T07:40:07.114Z,18.63
2022-10-26T07:42:34.454Z,18.40
2022-10-26T07:45:05.334Z,17.83
2022-10-26T07:47:31.915Z,18.15
2022-10-26T07:49:58.911Z,18.17
2022-10-26T07:52:25.684Z,18.24
2022-10-26T07:54:52.297Z,18.27
2022-10-26T07:57:19.067Z,18.26
2022-10-26T07:59:45.707Z,18.17
2022-10-26T08:02:12.377Z,18.65
2022-10-26T08:04:39.063Z,18.65
2022-10-26T08:07:05.665Z,18.79
2022-10-26T08:09:32.238Z,18.85
2022-10-26T08:11:58.848Z,18.82
2022-10-26T08:14:25.400Z,18.24
2022-10-26T08:16:52.693Z,18.48
2022-10-26T08:19:20.054Z,18.46
2022-10-26T08:21:46.732Z,18.75
2022-10-26T08:24:13.391Z,18.54
2022-10-26T08:26:40.088Z,18.78
2022-10-26T08:29:06.800Z,18.74
2022-10-26T08:31:33.802Z,19.08
2022-10-26T08:34:01.883Z,18.82
2022-10-26T08:36:29.056Z,19.08
2022-10-26T08:38:55.840Z,19.20
2022-10-26T08:41:44.293Z,19.00
2022-10-26T08:44:13.878Z,19.30
2022-10-26T08:46:46.425Z,19.28
2022-10-26T08:49:30.273Z,19.06
2022-10-26T08:52:01.515Z,18.98
2022-10-26T08:54:42.435Z,19.10
2022-10-26T08:57:33.965Z,19.38
2022-10-26T09:00:03.081Z,19.25
2022-10-26T09:02:29.853Z,19.18
2022-10-26T09:04:59.348Z,19.22
2022-10-26T09:07:59.134Z,19.43
2022-10-26T09:10:34.080Z,19.64
2022-10-26T09:13:30.074Z,19.31
2022-10-26T09:16:22.915Z,19.37
2022-10-26T09:18:53.540Z,19.74
2022-10-26T09:21:32.280Z,19.86
2022-10-26T09:24:19.065Z,19.55
2022-10-26T09:26:58.412Z,19.72
2022-10-26T09:29:32.026Z,19.94
2022-10-26T09:32:02.865Z,19.74
2022-10-26T09:34:37.979Z,19.91
2022-10-26T09:37:24.409Z,19.72
2022-10-26T09:39:59.955Z,19.59
2022-10-26T09:42:36.366Z,19.99
2022-10-26T09:45:31.400Z,19.92
2022-10-26T09:48:06.744Z,19.94
2022-10-26T09:50:40.294Z,19.84
2022-10-26T09:53:06.944Z,20.38
2022-10-26T09:55:39.361Z,20.38
2022-10-26T09:58:15.193Z,20.57
2022-10-26T10:00:43.612Z,20.30
2022-10-26T10:03:24.842Z,20.41
2022-10-26T10:05:52.708Z,20.33
2022-10-26T10:08:28.216Z,20.16
2022-10-26T10:11:08.624Z,20.73
2022-10-26T10:13:44.248Z,20.55
2022-10-26T10:16:23.284Z,19.91
2022-10-26T10:18:55.793Z,20.49
2022-10-26T10:21:39.174Z,20.07
2022-10-26T10:24:27.583Z,20.71
2022-10-26T10:27:14.021Z,20.56
2022-10-26T10:29:45.742Z,21.04
2022-10-26T10:32:18.304Z,20.46
2022-10-26T10:34:44.980Z,20.90
2022-10-26T10:37:36.038Z,20.96
2022-10-26T10:40:06.771Z,21.00
2022-10-26T10:42:38.493Z,20.94
2022-10-26T10:45:06.963Z,21.22
2022-10-26T10:47:36.779Z,21.39
2022-10-26T10:50:06.171Z,21.54
2022-10-26T10:52:35.240Z,21.58
2022-10-26T10:55:15.386Z,20.98
2022-10-26T10:58:11.968Z,20.97
2022-10-26T11:00:41.368Z,21.12
2022-10-26T11:03:41.793Z,21.22
2022-10-26T11:06:23.949Z,21.49
2022-10-26T11:09:02.998Z,21.61
2022-10-26T11:11:44.672Z,21.84
2022-10-26T11:14:28.330Z,21.71
2022-10-26T11:17:09.230Z,21.69
2022-10-26T11:19:46.149Z,21.89
2022-10-26T11:22:17.512Z,22.07
2022-10-26T11:24:59.225Z,21.81
2022-10-26T11:27:46.180Z,21.81
2022-10-26T11:30:22.990Z,21.36
2022-10-26T11:33:09.675Z,21.55
2022-10-26T11:35:45.704Z,21.62
2022-10-26T11:38:45.961Z,21.54
2022-10-26T11:41:19.984Z,21.57
2022-10-26T11:43:48.865Z,21.77
2022-10-26T11:46:24.375Z,21.78
2022-10-26T11:48:56.993Z,21.99
2022-10-26T11:51:56.800Z,21.30
2022-10-26T11:54:36.212Z,21.77
2022-10-26T11:57:05.286Z,21.99
2022-10-26T11:59:39.182Z,21.48
2022-10-26T12:02:14.776Z,21.78
2022-10-26T12:04:44.846Z,21.56
2022-10-26T12:07:20.936Z,21.91
2022-10-26T12:09:47.619Z,21.93
2022-10-26T12:12:17.701Z,21.27
2022-10-26T12:15:03.395Z,21.47
2022-10-26T12:17:51.590Z,21.68
2022-10-26T12:20:46.055Z,22.12
2022-10-26T12:23:19.120Z,21.77
2022-10-26T12:26:23.491Z,22.09
2022-10-26T12:29:02.103Z,22.26
2022-10-26T12:31:37.924Z,21.99
2022-10-26T12:34:11.900Z,22.27
2022-10-26T12:37:08.741Z,21.65
2022-10-26T12:39:36.599Z,21.64
2022-10-26T12:42:06.292Z,21.84
2022-10-26T12:44:41.416Z,21.59
2022-10-26T12:47:09.859Z,21.84
2022-10-26T12:50:07.370Z,21.62
2022-10-26T12:52:50.354Z,22.25
2022-10-26T12:55:39.142Z,22.27
2022-10-26T12:58:14.763Z,21.79
2022-10-26T13:00:48.575Z,22.13
2022-10-26T13:03:17.900Z,21.81
2022-10-26T13:06:02.849Z,21.86
2022-10-26T13:08:43.000Z,22.04
2022-10-26T13:11:44.415Z,22.05
2022-10-26T13:14:41.294Z,22.02
2022-10-26T13:17:27.722Z,21.81
2022-10-26T13:20:00.292Z,21.64
2022-10-26T13:22:28.501Z,21.86
2022-10-26T13:25:02.230Z,21.98
2022-10-26T13:27:34.899Z,21.71
2022-10-26T13:30:04.245Z,22.09
2022-10-26T13:32:43.738Z,21.80
2022-10-26T13:35:15.235Z,22.16
2022-10-26T13:37:47.054Z,21.76
2022-10-26T13:40:18.665Z,21.95
2022-10-26T13:42:51.517Z,21.85
2022-10-26T13:45:26.181Z,21.48
2022-10-26T13:48:07.793Z,21.57
2022-10-26T13:50:42.429Z,21.54
2022-10-26T13:53:22.415Z,21.91
2022-10-26T13:55:57.097Z,21.31
2022-10-26T13:58:34.479Z,21.87
2022-10-26T14:01:14.030Z,21.28
2022-10-26T14:03:45.401Z,21.72
2022-10-26T14:06:20.052Z,21.87
2022-10-26T14:08:49.577Z,21.63
2022-10-26T14:11:20.275Z,21.35
2022-10-26T14:13:49.888Z,21.67
2022-10-26T14:16:20.509Z,21.45
2022-10-26T14:18:49.289Z,21.35
2022-10-26T14:21:20.076Z,21.86
2022-10-26T14:23:58.632Z,21.57
2022-10-26T14:26:39.836Z,21.02
2022-10-26T14:29:17.742Z,21.36
2022-10-26T14:31:44.510Z,21.56
2022-10-26T14:34:12.551Z,21.66
2022-10-26T14:36:51.237Z,21.63
2022-10-26T14:39:43.226Z,21.36
2022-10-26T14:42:37.375Z,21.30
2022-10-26T14:45:09.400Z,21.53
2022-10-26T14:47:48.154Z,21.26
2022-10-26T14:50:31.110Z,21.55
2022-10-26T14:53:15.724Z,21.71
2022-10-26T14:55:52.599Z,21.44
2022-10-26T14:58:36.507Z,21.36
2022-10-26T15:01:25.453Z,21.41
2022-10-26T15:04:27.177Z,21.35
2022-10-26T15:07:00.913Z,21.20
2022-10-26T15:09:37.619Z,21.18
2022-10-26T15:12:04.890Z,21.18
2022-10-26T15:14:38.751Z,21.02
2022-10-26T15:17:09.187Z,21.01
2022-10-26T15:19:44.657Z,20.94
2022-10-26T15:22:22.623Z,20.83
2022-10-26T15:24:56.335Z,20.72
2022-10-26T15:27:25.062Z,20.66
2022-10-26T15:30:12.471Z,20.56
2022-10-26T15:32:39.095Z,20.41
2022-10-26T15:35:18.311Z,20.44
2022-10-26T15:37:49.003Z,20.21
2022-10-26T15:40:19.630Z,20.20
2022-10-26T15:42:52.124Z,20.13
2022-10-26T15:45:26.254Z,20.20
2022-10-26T15:47:56.800Z,20.12
2022-10-26T15:50:26.709Z,20.15
2022-10-26T15:53:02.110Z,19.90
2022-10-26T15:55:31.990Z,19.95
2022-10-26T15:57:58.670Z,19.92
2022-10-26T16:00:25.390Z,19.75
2022-10-26T16:02:57.478Z,19.78
2022-10-26T16:05:24.397Z,19.74
2022-10-26T16:07:51.464Z,19.42
2022-10-26T16:10:22.760Z,19.47
2022-10-26T16:12:53.320Z,19.31
2022-10-26T16:15:24.891Z,19.37
2022-10-26T16:17:52.559Z,19.41
2022-10-26T16:20:24.754Z,19.26
2022-10-26T16:22:52.884Z,19.46
2022-10-26T16:25:23.851Z,19.42
2022-10-26T16:27:51.764Z,19.36
2022-10-26T16:30:19.499Z,19.18
2022-10-26T16:32:46.643Z,19.26
2022-10-26T16:35:14.256Z,19.29
2022-10-26T16:37:41.030Z,19.28
2022-10-26T16:40:09.450Z,19.23
2022-10-26T16:42:36.207Z,19.33
2022-10-26T16:45:03.240Z,19.29
2022-10-26T16:47:35.663Z,19.37
2022-10-26T16:50:03.315Z,19.40
2022-10-26T16:52:29.972Z,19.30
2022-10-26T16:54:56.934Z,19.29
2022-10-26T16:57:23.509Z,19.31
2022-10-26T16:59:50.253Z,19.29
2022-10-26T17:02:17.081Z,19.46
2022-10-26T17:04:43.852Z,19.41
2022-10-26T17:07:11.266Z,19.31
2022-10-26T17:09:38.089Z,19.33
2022-10-26T17:12:05.249Z,19.35
2022-10-26T17:14:32.732Z,19.39
2022-10-26T17:16:59.385Z,19.18
2022-10-26T17:19:26.031Z,19.16
2022-10-26T17:21:55.058Z,19.20
2022-10-26T17:24:21.907Z,19.11
2022-10-26T17:26:51.329Z,19.25
2022-10-26T17:32:18.267Z,19.17
2022-10-26T17:34:55.059Z,19.22
2022-10-26T17:37:27.258Z,19.10
2022-10-26T17:39:55.289Z,18.77
2022-10-26T17:42:22.077Z,18.91
2022-10-26T17:45:00.294Z,18.95
2022-10-26T17:47:29.655Z,19.04
2022-10-26T17:49:56.331Z,19.13
2022-10-26T17:52:24.798Z,19.25
2022-10-26T17:55:01.784Z,19.11
2022-10-26T17:57:39.460Z,19.34
2022-10-26T18:00:07.755Z,19.20
2022-10-26T18:02:39.273Z,19.45
2022-10-26T18:05:12.242Z,19.31
2022-10-26T18:07:38.986Z,19.17
2022-10-26T18:10:32.744Z,19.22
2022-10-26T18:12:55.970Z,19.27
2022-10-26T18:15:23.951Z,19.09
2022-10-26T18:17:51.521Z,18.96
2022-10-26T18:20:20.094Z,19.08
2022-10-26T18:22:47.012Z,19.02
2022-10-26T18:25:13.884Z,19.17
2022-10-26T18:27:40.466Z,19.09
2022-10-26T18:30:07.859Z,18.99
2022-10-26T18:32:34.537Z,18.98
2022-10-26T18:35:01.139Z,19.08
2022-10-26T18:37:28.188Z,18.92
2022-10-26T18:39:55.125Z,18.88
2022-10-26T18:42:21.875Z,18.75
2022-10-26T18:44:48.434Z,18.59
2022-10-26T18:47:23.431Z,18.13
2022-10-26T18:49:50.176Z,18.11
2022-10-26T18:52:27.334Z,18.15
2022-10-26T18:54:59.108Z,18.21
2022-10-26T18:57:29.002Z,18.26
2022-10-26T18:59:55.779Z,18.26
2022-10-26T19:02:34.926Z,18.21
2022-10-26T19:05:02.198Z,18.26
2022-10-26T19:07:28.787Z,18.20
2022-10-26T19:09:55.339Z,18.13
2022-10-26T19:12:21.969Z,18.03
2022-10-26T19:14:48.562Z,18.03
2022-10-26T19:17:15.252Z,18.08
2022-10-26T19:19:41.876Z,18.05
2022-10-26T19:22:08.459Z,17.96
2022-10-26T19:24:35.073Z,17.89
2022-10-26T19:27:02.178Z,17.95
2022-10-26T19:29:28.835Z,17.99
2022-10-26T19:31:55.577Z,17.92
2022-10-26T19:34:22.391Z,17.82
2022-10-26T19:36:49.143Z,17.75
2022-10-26T19:39:18.802Z,17.78
2022-10-26T19:41:46.374Z,17.73
2022-10-26T19:44:14.449Z,17.65
2022-10-26T19:46:43.198Z,17.67
2022-10-26T19:49:09.875Z,17.71
2022-10-26T19:51:36.518Z,17.72
2022-10-26T19:54:05.403Z,17.68
2022-10-26T19:56:33.403Z,17.75
2022-10-26T19:59:01.037Z,17.65
2022-10-26T20:01:27.971Z,17.43
2022-10-26T20:03:57.558Z,17.50
2022-10-26T20:06:24.259Z,17.42
2022-10-26T20:08:51.038Z,17.48
2022-10-26T20:11:18.703Z,17.49
2022-10-26T20:13:47.089Z,17.54
2022-10-26T20:16:15.245Z,17.52
2022-10-26T20:18:45.768Z,17.53
2022-10-26T20:21:16.927Z,17.47
2022-10-26T20:23:44.448Z,17.35
2022-10-26T20:26:18.260Z,17.47
2022-10-26T20:28:51.344Z,17.39
2022-10-26T20:31:18.150Z,17.25
2022-10-26T20:33:44.768Z,17.12
2022-10-26T20:36:11.401Z,17.17
2022-10-26T20:38:39.838Z,17.12
2022-10-26T20:41:11.780Z,17.10
2022-10-26T20:43:41.947Z,17.09
2022-10-26T20:46:32.488Z,17.14
2022-10-26T20:48:59.332Z,17.02
2022-10-26T20:51:51.903Z,16.92
2022-10-26T20:54:33.525Z,17.08
2022-10-26T20:57:02.766Z,17.05
2022-10-26T20:59:38.030Z,17.09
2022-10-26T21:02:04.713Z,17.11
2022-10-26T21:04:31.447Z,17.03
2022-10-26T21:06:58.044Z,17.04
2022-10-26T21:09:26.090Z,16.95
2022-10-26T21:11:57.719Z,16.98
2022-10-26T21:14:24.885Z,16.98
2022-10-26T21:16:51.564Z,16.92
2022-10-26T21:19:19.355Z,16.91
2022-10-26T21:21:46.175Z,17.02
2022-10-26T21:24:12.986Z,16.86
2022-10-26T21:26:39.561Z,17.05
2022-10-26T21:29:06.175Z,16.83
2022-10-26T21:31:33.174Z,16.90
2022-10-26T21:34:00.937Z,16.86
2022-10-26T21:36:27.704Z,16.80
2022-10-26T21:38:57.347Z,16.66
2022-10-26T21:41:28.450Z,16.41
2022-10-26T21:44:03.504Z,16.79
2022-10-26T21:46:38.066Z,16.85
2022-10-26T21:49:05.798Z,16.88
2022-10-26T21:51:35.076Z,16.81
2022-10-26T21:54:02.153Z,16.77
2022-10-26T21:56:28.713Z,16.66
2022-10-26T21:58:55.357Z,16.69
2022-10-26T22:01:23.136Z,16.72
2022-10-26T22:03:49.961Z,16.55
2022-10-26T22:08:47.763Z,16.49
2022-10-26T22:11:22.703Z,15.52
2022-10-26T22:13:50.718Z,15.33
2022-10-26T22:16:24.168Z,15.58
2022-10-26T22:18:52.603Z,15.86
2022-10-26T22:21:20.945Z,16.00
2022-10-26T22:23:47.849Z,16.21
2022-10-26T22:26:24.660Z,16.01
2022-10-26T22:28:53.786Z,16.08
2022-10-26T22:31:23.281Z,16.22
2022-10-26T22:33:54.538Z,16.33
2022-10-26T22:36:22.001Z,16.42
2022-10-26T22:38:49.805Z,16.48
2022-10-26T22:41:17.438Z,16.38
2022-10-26T22:43:44.222Z,16.43
2022-10-26T22:46:13.559Z,16.09
2022-10-26T22:48:47.062Z,16.28
2022-10-26T22:51:16.833Z,16.28
2022-10-26T22:53:43.668Z,16.37
2022-10-26T22:56:12.773Z,16.50
2022-10-26T22:58:40.562Z,16.43
2022-10-26T23:01:10.015Z,16.48
2022-10-26T23:03:37.401Z,16.34
2022-10-26T23:06:07.207Z,16.41
2022-10-26T23:08:33.843Z,16.52
2022-10-26T23:11:02.198Z,16.60
2022-10-26T23:13:29.263Z,16.62
2022-10-26T23:15:56.556Z,16.66
2022-10-26T23:18:23.315Z,16.57
2022-10-26T23:20:50.804Z,16.59
2022-10-26T23:23:18.531Z,16.47
2022-10-26T23:25:45.192Z,16.58
2022-10-26T23:28:12.005Z,16.52
2022-10-26T23:30:38.606Z,16.58
2022-10-26T23:33:05.394Z,16.53
2022-10-26T23:35:32.050Z,16.44
2022-10-26T23:37:59.371Z,16.51
2022-10-26T23:40:27.235Z,16.47
2022-10-26T23:42:54.290Z,16.46
2022-10-26T23:45:21.436Z,16.49
2022-10-26T23:47:48.264Z,16.45
2022-10-26T23:50:15.531Z,16.43
2022-10-26T23:52:42.110Z,16.45
2022-10-26T23:55:09.129Z,16.56
2022-10-26T23:57:35.736Z,16.57
